Time,TemperatureF,DewpointF,PressureIn,WindDirection,WindDirectionDegrees,WindSpeedMPH,WindSpeedGustMPH,Humidity,HourlyPrecipIn,Conditions,Clouds,dailyrainin,SoftwareType,DateUTC
2013-11-16 00:01:00,24.7,23.2,30.20,West,271,0.0,0.0,94,0.00,,CLR,0.00,VWS V12.08,2013-11-16 05:01:00,
2013-11-16 00:02:00,24.7,23.2,30.20,West,270,0.0,0.0,94,0.00,,CLR,0.00,VWS V12.08,2013-11-16 05:02:00,
2013-11-16 00:07:00,24.7,23.2,30.20,West,271,0.0,0.0,94,0.00,,CLR,0.00,VWS V12.08,2013-11-16 05:07:00,
2013-11-16 00:12:00,24.7,23.2,30.20,West,270,0.0,0.0,94,0.00,,CLR,0.00,VWS V12.08,2013-11-16 05:12:00,
2013-11-16 00:17:00,24.7,23.2,30.20,West,271,0.0,0.0,94,0.00,,CLR,0.00,VWS V12.08,2013-11-16 05:17:00,
2013-11-16 00:22:00,24.7,23.2,30.20,West,271,0.0,0.0,94,0.00,,CLR,0.00,VWS V12.08,2013-11-16 05:22:00,
2013-11-16 00:27:00,24.7,23.2,30.20,West,271,1.0,1.0,94,0.00,,CLR,0.00,VWS V12.08,2013-11-16 05:27:00,
2013-11-16 00:32:00,24.5,23.0,30.18,West,271,0.0,0.0,94,0.00,,CLR,0.00,VWS V12.08,2013-11-16 05:32:00,
2013-11-16 00:37:00,24.7,23.5,30.18,NNE,16,0.0,0.0,95,0.00,,CLR,0.00,VWS V12.08,2013-11-16 05:37:00,
2013-11-16 00:42:00,24.7,23.5,30.18,NNE,16,0.0,0.0,95,0.00,,CLR,0.00,VWS V12.08,2013-11-16 05:42:00,
2013-11-16 00:47:00,24.7,23.5,30.18,NNE,16,0.0,1.0,95,0.00,,CLR,0.00,VWS V12.08,2013-11-16 05:47:00,
2013-11-16 00:52:00,24.7,23.5,30.18,NNE,16,0.0,2.0,95,0.00,,CLR,0.00,VWS V12.08,2013-11-16 05:52:00,
2013-11-16 00:57:00,24.7,23.5,30.18,NNE,16,0.0,0.0,95,0.00,,CLR,0.00,VWS V12.08,2013-11-16 05:57:00,
2013-11-16 01:02:00,24.7,23.5,30.18,NNE,16,0.0,0.0,95,0.00,,CLR,0.00,VWS V12.08,2013-11-16 06:02:00,
2013-11-16 01:07:00,24.7,23.5,30.18,NNE,16,0.0,0.0,95,0.00,,CLR,0.00,VWS V12.08,2013-11-16 06:07:00,
2013-11-16 01:12:00,24.8,23.6,30.18,NNE,16,0.0,0.0,95,0.00,,CLR,0.00,VWS V12.08,2013-11-16 06:12:00,
2013-11-16 01:17:00,24.8,23.6,30.18,NNE,16,0.0,0.0,95,0.00,,CLR,0.00,VWS V12.08,2013-11-16 06:17:00,
2013-11-16 01:22:00,25.0,23.8,30.18,NNE,16,0.0,0.0,95,0.00,,CLR,0.00,VWS V12.08,2013-11-16 06:22:00,
2013-11-16 01:27:00,25.0,23.8,30.18,NNE,16,0.0,0.0,95,0.00,,CLR,0.00,VWS V12.08,2013-11-16 06:27:00,
2013-11-16 01:32:00,25.1,23.9,30.18,NNE,16,1.0,2.0,95,0.00,,CLR,0.00,VWS V12.08,2013-11-16 06:32:00,
2013-11-16 01:37:00,25.1,23.9,30.18,NNE,17,0.0,0.0,95,0.00,,CLR,0.00,VWS V12.08,2013-11-16 06:37:00,
2013-11-16 01:42:00,25.3,24.1,30.18,NNE,17,1.0,2.0,95,0.00,,CLR,0.00,VWS V12.08,2013-11-16 06:42:00,
2013-11-16 01:47:00,25.3,23.8,30.18,NNE,17,1.0,1.0,94,0.00,,CLR,0.00,VWS V12.08,2013-11-16 06:47:00,
2013-11-16 01:52:00,25.3,23.8,30.18,NNE,17,0.0,0.0,94,0.00,,CLR,0.00,VWS V12.08,2013-11-16 06:52:00,
2013-11-16 01:57:00,25.3,23.8,30.18,NNE,17,0.0,0.0,94,0.00,,CLR,0.00,VWS V12.08,2013-11-16 06:57:00,
2013-11-16 02:02:00,25.3,23.8,30.18,NNE,17,0.0,0.0,94,0.00,,CLR,0.00,VWS V12.08,2013-11-16 07:02:00,
2013-11-16 02:07:00,25.3,23.8,30.18,NNE,17,0.0,0.0,94,0.00,,CLR,0.00,VWS V12.08,2013-11-16 07:07:00,
2013-11-16 02:12:00,25.3,23.8,30.18,NNE,17,0.0,0.0,94,0.00,,CLR,0.00,VWS V12.08,2013-11-16 07:12:00,
2013-11-16 02:17:00,25.4,23.9,30.20,NNE,17,0.0,0.0,94,0.00,,CLR,0.00,VWS V12.08,2013-11-16 07:17:00,
2013-11-16 02:22:00,25.4,23.9,30.20,NNE,17,0.0,0.0,94,0.00,,CLR,0.00,VWS V12.08,2013-11-16 07:22:00,
2013-11-16 02:27:00,25.4,23.9,30.20,NNE,17,0.0,0.0,94,0.00,,CLR,0.00,VWS V12.08,2013-11-16 07:27:00,
2013-11-16 02:32:00,25.4,23.9,30.19,NNE,17,0.0,0.0,94,0.00,,CLR,0.00,VWS V12.08,2013-11-16 07:32:00,
2013-11-16 02:37:00,25.6,24.1,30.19,NNE,17,0.0,0.0,94,0.00,,CLR,0.00,VWS V12.08,2013-11-16 07:37:00,
2013-11-16 02:42:00,25.7,24.2,30.19,NNE,17,0.0,0.0,94,0.00,,CLR,0.00,VWS V12.08,2013-11-16 07:42:00,
2013-11-16 02:47:00,25.7,24.2,30.18,NNE,17,0.0,0.0,94,0.00,,CLR,0.00,VWS V12.08,2013-11-16 07:47:00,
2013-11-16 02:52:00,25.9,24.4,30.18,NNE,17,0.0,0.0,94,0.00,,CLR,0.00,VWS V12.08,2013-11-16 07:52:00,
2013-11-16 02:57:00,25.9,24.2,30.18,NNE,17,0.0,0.0,93,0.00,,CLR,0.00,VWS V12.08,2013-11-16 07:57:00,
2013-11-16 03:02:00,26.0,24.3,30.18,NNE,17,0.0,0.0,93,0.00,,CLR,0.00,VWS V12.08,2013-11-16 08:02:00,
2013-11-16 03:07:00,26.0,24.3,30.18,NNE,17,0.0,0.0,93,0.00,,CLR,0.00,VWS V12.08,2013-11-16 08:07:00,
2013-11-16 03:12:00,26.0,24.3,30.18,NNE,17,0.0,0.0,93,0.00,,CLR,0.00,VWS V12.08,2013-11-16 08:12:00,
2013-11-16 03:17:00,26.2,24.5,30.20,NNE,17,0.0,0.0,93,0.00,,CLR,0.00,VWS V12.08,2013-11-16 08:17:00,
2013-11-16 03:22:00,26.2,24.5,30.20,NNE,17,0.0,0.0,93,0.00,,CLR,0.00,VWS V12.08,2013-11-16 08:22:00,
2013-11-16 03:27:00,26.2,24.5,30.20,NNE,17,0.0,0.0,93,0.00,,CLR,0.00,VWS V12.08,2013-11-16 08:27:00,
2013-11-16 03:33:00,26.2,24.2,30.21,NNE,17,0.0,0.0,92,0.00,,CLR,0.00,VWS V12.08,2013-11-16 08:33:00,
2013-11-16 03:38:00,26.3,24.3,30.21,WSW,248,0.0,0.0,92,0.00,,CLR,0.00,VWS V12.08,2013-11-16 08:38:00,
2013-11-16 03:43:00,26.3,24.3,30.21,WSW,247,0.0,2.0,92,0.00,,CLR,0.00,VWS V12.08,2013-11-16 08:43:00,
2013-11-16 03:48:00,26.5,24.5,30.22,WSW,247,2.0,2.0,92,0.00,,CLR,0.00,VWS V12.08,2013-11-16 08:48:00,
2013-11-16 03:53:00,26.5,24.5,30.22,WSW,246,0.0,0.0,92,0.00,,CLR,0.00,VWS V12.08,2013-11-16 08:53:00,
2013-11-16 03:58:00,26.5,24.5,30.22,WSW,247,0.0,0.0,92,0.00,,CLR,0.00,VWS V12.08,2013-11-16 08:58:00,
2013-11-16 04:03:00,26.5,24.5,30.23,WSW,247,1.0,1.0,92,0.00,,CLR,0.00,VWS V12.08,2013-11-16 09:03:00,
2013-11-16 04:08:00,26.5,24.5,30.23,WSW,247,0.0,0.0,92,0.00,,CLR,0.00,VWS V12.08,2013-11-16 09:08:00,
2013-11-16 04:13:00,26.6,24.6,30.23,WSW,246,0.0,0.0,92,0.00,,CLR,0.00,VWS V12.08,2013-11-16 09:13:00,
2013-11-16 04:18:00,26.6,24.6,30.24,WSW,247,0.0,0.0,92,0.00,,CLR,0.00,VWS V12.08,2013-11-16 09:18:00,
2013-11-16 04:23:00,26.6,24.6,30.24,WSW,246,0.0,0.0,92,0.00,,CLR,0.00,VWS V12.08,2013-11-16 09:23:00,
2013-11-16 04:28:00,26.6,24.6,30.24,WSW,246,0.0,0.0,92,0.00,,CLR,0.00,VWS V12.08,2013-11-16 09:28:00,
2013-11-16 04:33:00,26.6,24.3,30.24,WSW,246,0.0,0.0,91,0.00,,CLR,0.00,VWS V12.08,2013-11-16 09:33:00,
2013-11-16 04:38:00,26.6,24.6,30.24,WSW,246,0.0,0.0,92,0.00,,CLR,0.00,VWS V12.08,2013-11-16 09:38:00,
2013-11-16 04:43:00,26.6,24.6,30.24,WSW,247,0.0,0.0,92,0.00,,CLR,0.00,VWS V12.08,2013-11-16 09:43:00,
2013-11-16 04:48:00,26.6,24.6,30.24,WSW,246,0.0,0.0,92,0.00,,CLR,0.00,VWS V12.08,2013-11-16 09:48:00,
2013-11-16 04:53:00,26.6,24.6,30.24,WSW,247,0.0,0.0,92,0.00,,CLR,0.00,VWS V12.08,2013-11-16 09:53:00,
2013-11-16 04:58:00,26.8,24.8,30.24,WSW,246,0.0,0.0,92,0.00,,CLR,0.00,VWS V12.08,2013-11-16 09:58:00,
2013-11-16 05:03:00,26.8,24.8,30.25,WSW,246,0.0,0.0,92,0.00,,CLR,0.00,VWS V12.08,2013-11-16 10:03:00,
2013-11-16 05:08:00,26.8,24.8,30.25,WSW,246,0.0,0.0,92,0.00,,CLR,0.00,VWS V12.08,2013-11-16 10:08:00,
2013-11-16 05:13:00,26.8,24.8,30.25,WSW,246,0.0,0.0,92,0.00,,CLR,0.00,VWS V12.08,2013-11-16 10:13:00,
2013-11-16 05:18:00,26.9,24.9,30.25,WSW,246,0.0,0.0,92,0.00,,CLR,0.00,VWS V12.08,2013-11-16 10:18:00,
2013-11-16 05:23:00,26.9,24.9,30.25,WSW,246,0.0,0.0,92,0.00,,CLR,0.00,VWS V12.08,2013-11-16 10:23:00,
2013-11-16 05:28:00,26.9,24.9,30.25,WSW,246,0.0,0.0,92,0.00,,CLR,0.00,VWS V12.08,2013-11-16 10:28:00,
2013-11-16 05:33:00,26.9,24.9,30.26,WSW,246,0.0,0.0,92,0.00,,CLR,0.00,VWS V12.08,2013-11-16 10:33:00,
2013-11-16 05:38:00,26.9,24.9,30.26,WSW,246,0.0,0.0,92,0.00,,CLR,0.00,VWS V12.08,2013-11-16 10:38:00,
2013-11-16 05:43:00,26.9,24.9,30.26,WSW,247,0.0,0.0,92,0.00,,CLR,0.00,VWS V12.08,2013-11-16 10:43:00,
2013-11-16 05:48:00,27.0,25.0,30.26,WSW,246,0.0,0.0,92,0.00,,CLR,0.00,VWS V12.08,2013-11-16 10:48:00,
2013-11-16 05:53:00,27.0,25.0,30.26,WSW,247,0.0,0.0,92,0.00,,CLR,0.00,VWS V12.08,2013-11-16 10:53:00,
2013-11-16 05:58:00,27.0,25.0,30.26,WSW,246,0.0,0.0,92,0.00,,CLR,0.00,VWS V12.08,2013-11-16 10:58:00,
2013-11-16 06:03:00,27.2,25.2,30.27,WSW,246,0.0,0.0,92,0.00,,CLR,0.00,VWS V12.08,2013-11-16 11:03:00,
2013-11-16 06:08:00,27.2,25.2,30.27,WSW,246,0.0,0.0,92,0.00,,CLR,0.00,VWS V12.08,2013-11-16 11:08:00,
2013-11-16 06:13:00,27.3,25.3,30.27,WSW,247,0.0,0.0,92,0.00,,CLR,0.00,VWS V12.08,2013-11-16 11:13:00,
2013-11-16 06:18:00,27.3,25.3,30.27,WSW,247,1.0,1.0,92,0.00,,CLR,0.00,VWS V12.08,2013-11-16 11:18:00,
2013-11-16 06:23:00,27.3,25.3,30.27,WSW,247,0.0,2.0,92,0.00,,CLR,0.00,VWS V12.08,2013-11-16 11:23:00,
2013-11-16 06:28:00,27.3,25.3,30.27,WSW,247,0.0,0.0,92,0.00,,CLR,0.00,VWS V12.08,2013-11-16 11:28:00,
2013-11-16 06:33:00,27.5,25.5,30.26,WSW,247,0.0,0.0,92,0.00,,CLR,0.00,VWS V12.08,2013-11-16 11:33:00,
2013-11-16 06:38:00,27.5,25.5,30.26,WSW,246,0.0,0.0,92,0.00,,CLR,0.00,VWS V12.08,2013-11-16 11:38:00,
2013-11-16 06:43:00,27.5,25.5,30.26,WSW,247,0.0,0.0,92,0.00,,SCT120,0.00,VWS V12.08,2013-11-16 11:43:00,
2013-11-16 06:48:00,27.5,25.5,30.27,WSW,247,0.0,0.0,92,0.00,,SCT120,0.00,VWS V12.08,2013-11-16 11:48:00,
2013-11-16 06:53:00,27.5,25.5,30.27,WSW,246,0.0,0.0,92,0.00,,SCT120,0.00,VWS V12.08,2013-11-16 11:53:00,
2013-11-16 06:58:00,27.5,25.5,30.26,WSW,246,0.0,0.0,92,0.00,,SCT120,0.00,VWS V12.08,2013-11-16 11:58:00,
2013-11-16 07:03:00,27.5,25.5,30.26,WSW,246,0.0,0.0,92,0.00,,SCT120,0.00,VWS V12.08,2013-11-16 12:03:00,
2013-11-16 07:08:00,27.5,25.5,30.26,WSW,247,0.0,0.0,92,0.00,,SCT120,0.00,VWS V12.08,2013-11-16 12:08:00,
2013-11-16 07:13:00,27.6,25.6,30.26,WSW,247,0.0,0.0,92,0.00,,SCT120,0.00,VWS V12.08,2013-11-16 12:13:00,
2013-11-16 07:19:00,27.6,25.3,30.26,WSW,246,1.0,2.0,91,0.00,,SCT120,0.00,VWS V12.08,2013-11-16 12:19:00,
2013-11-16 07:24:00,27.6,25.3,30.26,WSW,246,0.0,0.0,91,0.00,,SCT120,0.00,VWS V12.08,2013-11-16 12:24:00,
2013-11-16 07:29:00,27.8,25.5,30.26,WSW,247,0.0,0.0,91,0.00,,SCT120,0.00,VWS V12.08,2013-11-16 12:29:00,
2013-11-16 07:34:00,27.8,25.5,30.26,WSW,247,0.0,0.0,91,0.00,,SCT120,0.00,VWS V12.08,2013-11-16 12:34:00,
2013-11-16 07:39:00,27.9,25.6,30.26,WSW,247,1.0,1.0,91,0.00,,SCT120,0.00,VWS V12.08,2013-11-16 12:39:00,
2013-11-16 07:44:00,28.1,25.8,30.26,WSW,246,1.0,1.0,91,0.00,,SCT120,0.00,VWS V12.08,2013-11-16 12:44:00,
2013-11-16 07:49:00,28.4,26.1,30.26,WSW,246,0.0,0.0,91,0.00,,SCT120,0.00,VWS V12.08,2013-11-16 12:49:00,
2013-11-16 07:54:00,28.5,26.2,30.26,WSW,247,0.0,0.0,91,0.00,,SCT120,0.00,VWS V12.08,2013-11-16 12:54:00,
2013-11-16 07:59:00,28.7,26.4,30.26,ENE,59,1.0,2.0,91,0.00,,SCT120,0.00,VWS V12.08,2013-11-16 12:59:00,
2013-11-16 08:04:00,28.8,26.2,30.26,ENE,58,0.0,0.0,90,0.00,,OVC100,0.00,VWS V12.08,2013-11-16 13:04:00,
2013-11-16 08:09:00,29.0,26.2,30.26,NE,56,0.0,1.0,89,0.00,,OVC100,0.00,VWS V12.08,2013-11-16 13:09:00,
2013-11-16 08:14:00,29.0,26.2,30.27,NE,56,0.0,0.0,89,0.00,,OVC100,0.00,VWS V12.08,2013-11-16 13:14:00,
2013-11-16 08:19:00,29.1,26.0,30.27,ENE,58,0.0,0.0,88,0.00,,OVC100,0.00,VWS V12.08,2013-11-16 13:19:00,
2013-11-16 08:24:00,29.4,26.3,30.27,NE,56,0.0,0.0,88,0.00,,OVC100,0.00,VWS V12.08,2013-11-16 13:24:00,
2013-11-16 08:29:00,29.9,26.8,30.26,ENE,58,0.0,0.0,88,0.00,,OVC100,0.00,VWS V12.08,2013-11-16 13:29:00,
2013-11-16 08:34:00,30.4,27.0,30.26,NE,56,0.0,0.0,87,0.00,,OVC100,0.00,VWS V12.08,2013-11-16 13:34:00,
2013-11-16 08:39:00,31.2,26.9,30.26,ENE,58,2.0,2.0,84,0.00,,OVC100,0.00,VWS V12.08,2013-11-16 13:39:00,
2013-11-16 08:44:00,31.6,27.0,30.26,ENE,58,1.0,2.0,83,0.00,,OVC090,0.00,VWS V12.08,2013-11-16 13:44:00,
2013-11-16 08:49:00,32.1,26.9,30.26,ENE,59,1.0,3.0,81,0.00,,OVC090,0.00,VWS V12.08,2013-11-16 13:49:00,
2013-11-16 08:54:00,32.7,26.9,30.26,ENE,59,0.0,0.0,79,0.00,,OVC090,0.00,VWS V12.08,2013-11-16 13:54:00,
2013-11-16 08:59:00,33.3,27.2,30.28,SW,233,1.0,2.0,78,0.00,,OVC090,0.00,VWS V12.08,2013-11-16 13:59:00,
2013-11-16 09:04:00,34.0,27.2,30.28,SW,222,1.0,2.0,76,0.00,,OVC090,0.00,VWS V12.08,2013-11-16 14:04:00,
2013-11-16 09:09:00,34.5,27.1,30.28,SSE,164,1.0,2.0,74,0.00,,OVC090,0.00,VWS V12.08,2013-11-16 14:09:00,
2013-11-16 09:14:00,35.0,27.2,30.28,SSE,165,2.0,3.0,73,0.00,,OVC090,0.00,VWS V12.08,2013-11-16 14:14:00,
2013-11-16 09:19:00,35.8,27.3,30.28,WSW,241,2.0,4.0,71,0.00,,OVC090,0.00,VWS V12.08,2013-11-16 14:19:00,
2013-11-16 09:24:00,36.7,27.5,30.28,SW,232,2.0,4.0,69,0.00,,OVC090,0.00,VWS V12.08,2013-11-16 14:24:00,
2013-11-16 09:29:00,37.3,27.4,30.28,WSW,244,3.0,3.0,67,0.00,,OVC090,0.00,VWS V12.08,2013-11-16 14:29:00,
2013-11-16 09:34:00,37.6,26.9,30.28,SW,229,2.0,5.0,65,0.00,,OVC090,0.00,VWS V12.08,2013-11-16 14:34:00,
2013-11-16 09:39:00,38.0,27.3,30.28,SW,233,0.0,2.0,65,0.00,,OVC090,0.00,VWS V12.08,2013-11-16 14:39:00,
2013-11-16 09:44:00,38.7,27.2,30.29,SW,234,5.0,8.0,63,0.00,,OVC080,0.00,VWS V12.08,2013-11-16 14:44:00,
2013-11-16 09:49:00,39.0,27.5,30.29,South,185,2.0,4.0,63,0.00,,OVC080,0.00,VWS V12.08,2013-11-16 14:49:00,
2013-11-16 09:54:00,39.1,27.2,30.29,SSW,206,5.0,5.0,62,0.00,,OVC080,0.00,VWS V12.08,2013-11-16 14:54:00,
2013-11-16 09:59:00,39.7,27.4,30.29,SW,230,3.0,6.0,61,0.00,,OVC080,0.00,VWS V12.08,2013-11-16 14:59:00,
2013-11-16 10:04:00,40.0,26.8,30.29,SW,223,2.0,3.0,59,0.00,,OVC080,0.00,VWS V12.08,2013-11-16 15:04:00,
2013-11-16 10:09:00,40.4,26.4,30.29,SW,223,1.0,3.0,57,0.00,,OVC080,0.00,VWS V12.08,2013-11-16 15:09:00,
2013-11-16 10:14:00,41.1,26.2,30.30,SW,236,3.0,3.0,55,0.00,,OVC080,0.00,VWS V12.08,2013-11-16 15:14:00,
2013-11-16 10:19:00,41.8,26.4,30.30,SW,236,1.0,3.0,54,0.00,,OVC080,0.00,VWS V12.08,2013-11-16 15:19:00,
2013-11-16 10:24:00,42.3,26.4,30.30,SW,236,2.0,5.0,53,0.00,,OVC080,0.00,VWS V12.08,2013-11-16 15:24:00,
2013-11-16 10:29:00,42.9,26.0,30.29,WSW,253,3.0,6.0,51,0.00,,OVC080,0.00,VWS V12.08,2013-11-16 15:29:00,
2013-11-16 10:34:00,43.3,25.9,30.29,SW,223,2.0,5.0,50,0.00,,OVC080,0.00,VWS V12.08,2013-11-16 15:34:00,
2013-11-16 10:39:00,43.7,26.3,30.29,WSW,241,2.0,6.0,50,0.00,,OVC080,0.00,VWS V12.08,2013-11-16 15:39:00,
2013-11-16 10:44:00,44.0,26.1,30.29,SW,219,1.0,7.0,49,0.00,,CLR,0.00,VWS V12.08,2013-11-16 15:44:00,
2013-11-16 10:49:00,44.3,26.4,30.29,WSW,240,2.0,5.0,49,0.00,,CLR,0.00,VWS V12.08,2013-11-16 15:49:00,
2013-11-16 10:54:00,44.9,25.9,30.29,WSW,240,1.0,6.0,47,0.00,,CLR,0.00,VWS V12.08,2013-11-16 15:54:00,
2013-11-16 10:59:00,45.4,25.9,30.28,WSW,247,3.0,7.0,46,0.00,,CLR,0.00,VWS V12.08,2013-11-16 15:59:00,
2013-11-16 11:04:00,46.0,25.9,30.28,SW,232,4.0,6.0,45,0.00,,CLR,0.00,VWS V12.08,2013-11-16 16:04:00,
2013-11-16 11:09:00,46.0,26.4,30.28,SW,233,2.0,6.0,46,0.00,,CLR,0.00,VWS V12.08,2013-11-16 16:09:00,
2013-11-16 11:15:00,46.6,26.4,30.27,SW,227,2.0,5.0,45,0.00,,CLR,0.00,VWS V12.08,2013-11-16 16:15:00,
2013-11-16 11:20:00,47.1,26.3,30.27,SSW,205,5.0,6.0,44,0.00,,CLR,0.00,VWS V12.08,2013-11-16 16:20:00,
2013-11-16 11:25:00,47.9,27.0,30.27,WSW,237,1.0,3.0,44,0.00,,CLR,0.00,VWS V12.08,2013-11-16 16:25:00,
2013-11-16 11:30:00,48.6,26.6,30.26,SW,229,3.0,5.0,42,0.00,,CLR,0.00,VWS V12.08,2013-11-16 16:30:00,
2013-11-16 11:35:00,49.2,27.1,30.26,SW,229,2.0,4.0,42,0.00,,CLR,0.00,VWS V12.08,2013-11-16 16:35:00,
2013-11-16 11:40:00,49.5,26.8,30.26,SW,234,0.0,5.0,41,0.00,,CLR,0.00,VWS V12.08,2013-11-16 16:40:00,
2013-11-16 11:45:00,50.0,27.2,30.26,WSW,247,1.0,8.0,41,0.00,,CLR,0.00,VWS V12.08,2013-11-16 16:45:00,
2013-11-16 11:50:00,50.1,26.7,30.26,SW,222,1.0,3.0,40,0.00,,CLR,0.00,VWS V12.08,2013-11-16 16:50:00,
2013-11-16 11:55:00,50.6,27.2,30.26,WSW,250,4.0,4.0,40,0.00,,CLR,0.00,VWS V12.08,2013-11-16 16:55:00,
2013-11-16 12:00:00,51.3,25.9,30.25,West,280,2.0,6.0,37,0.00,,CLR,0.00,VWS V12.08,2013-11-16 17:00:00,
2013-11-16 12:05:00,51.9,26.5,30.25,SW,236,1.0,5.0,37,0.00,,CLR,0.00,VWS V12.08,2013-11-16 17:05:00,
2013-11-16 12:10:00,52.3,27.5,30.25,SW,222,4.0,5.0,38,0.00,,CLR,0.00,VWS V12.08,2013-11-16 17:10:00,
2013-11-16 12:15:00,52.6,26.4,30.25,SW,223,3.0,6.0,36,0.00,,CLR,0.00,VWS V12.08,2013-11-16 17:15:00,
2013-11-16 12:20:00,53.1,24.8,30.25,West,268,1.0,4.0,33,0.00,,CLR,0.00,VWS V12.08,2013-11-16 17:20:00,
2013-11-16 12:25:00,53.2,26.3,30.25,SW,222,5.0,7.0,35,0.00,,CLR,0.00,VWS V12.08,2013-11-16 17:25:00,
2013-11-16 12:30:00,53.2,24.9,30.25,SW,219,2.0,3.0,33,0.00,,CLR,0.00,VWS V12.08,2013-11-16 17:30:00,
2013-11-16 12:35:00,53.4,25.8,30.25,WSW,251,0.0,1.0,34,0.00,,CLR,0.00,VWS V12.08,2013-11-16 17:35:00,
2013-11-16 12:40:00,53.4,24.3,30.25,SW,236,0.0,2.0,32,0.00,,CLR,0.00,VWS V12.08,2013-11-16 17:40:00,
2013-11-16 12:45:00,53.5,24.4,30.24,WSW,239,0.0,2.0,32,0.00,,CLR,0.00,VWS V12.08,2013-11-16 17:45:00,
2013-11-16 12:50:00,54.0,22.5,30.24,WSW,243,2.0,5.0,29,0.00,,CLR,0.00,VWS V12.08,2013-11-16 17:50:00,
2013-11-16 12:55:00,54.4,23.6,30.24,WSW,246,0.0,3.0,30,0.00,,CLR,0.00,VWS V12.08,2013-11-16 17:55:00,
2013-11-16 13:00:00,54.5,23.7,30.23,SW,230,0.0,3.0,30,0.00,,CLR,0.00,VWS V12.08,2013-11-16 18:00:00,
2013-11-16 13:05:00,54.7,22.3,30.23,SW,215,0.0,1.0,28,0.00,,CLR,0.00,VWS V12.08,2013-11-16 18:05:00,
2013-11-16 13:10:00,54.8,21.5,30.23,SSW,213,1.0,5.0,27,0.00,,CLR,0.00,VWS V12.08,2013-11-16 18:10:00,
2013-11-16 13:15:00,55.0,22.5,30.23,SW,233,0.0,3.0,28,0.00,,CLR,0.00,VWS V12.08,2013-11-16 18:15:00,
2013-11-16 13:20:00,55.1,21.7,30.23,WSW,243,1.0,3.0,27,0.00,,CLR,0.00,VWS V12.08,2013-11-16 18:20:00,
2013-11-16 13:25:00,55.0,21.6,30.23,WSW,254,2.0,6.0,27,0.00,,CLR,0.00,VWS V12.08,2013-11-16 18:25:00,
2013-11-16 13:30:00,55.1,21.7,30.23,WSW,239,0.0,0.0,27,0.00,,CLR,0.00,VWS V12.08,2013-11-16 18:30:00,
2013-11-16 13:35:00,55.3,22.8,30.23,WSW,239,0.0,2.0,28,0.00,,CLR,0.00,VWS V12.08,2013-11-16 18:35:00,
2013-11-16 13:40:00,55.6,22.2,30.23,WSW,246,2.0,3.0,27,0.00,,CLR,0.00,VWS V12.08,2013-11-16 18:40:00,
2013-11-16 13:45:00,55.9,22.4,30.22,WSW,239,2.0,2.0,27,0.00,,CLR,0.00,VWS V12.08,2013-11-16 18:45:00,
2013-11-16 13:50:00,55.8,23.2,30.22,WSW,248,1.0,3.0,28,0.00,,CLR,0.00,VWS V12.08,2013-11-16 18:50:00,
2013-11-16 13:55:00,55.5,23.0,30.22,SW,230,2.0,3.0,28,0.00,,CLR,0.00,VWS V12.08,2013-11-16 18:55:00,
2013-11-16 14:00:00,55.5,22.1,30.21,SW,234,1.0,2.0,27,0.00,,CLR,0.00,VWS V12.08,2013-11-16 19:00:00,
2013-11-16 14:05:00,55.8,26.4,30.21,SW,234,0.0,1.0,32,0.00,,CLR,0.00,VWS V12.08,2013-11-16 19:05:00,
2013-11-16 14:10:00,55.9,22.4,30.21,SW,234,0.0,3.0,27,0.00,,CLR,0.00,VWS V12.08,2013-11-16 19:10:00,
2013-11-16 14:15:00,55.8,27.1,30.21,SW,234,0.0,0.0,33,0.00,,CLR,0.00,VWS V12.08,2013-11-16 19:15:00,
2013-11-16 14:20:00,55.3,26.0,30.21,SW,234,0.0,0.0,32,0.00,,CLR,0.00,VWS V12.08,2013-11-16 19:20:00,
2013-11-16 14:25:00,54.7,29.0,30.21,SW,234,0.0,0.0,37,0.00,,CLR,0.00,VWS V12.08,2013-11-16 19:25:00,
2013-11-16 14:30:00,54.1,29.7,30.22,SW,234,1.0,1.0,39,0.00,,CLR,0.00,VWS V12.08,2013-11-16 19:30:00,
2013-11-16 14:35:00,54.0,26.3,30.22,SW,234,0.0,0.0,34,0.00,,CLR,0.00,VWS V12.08,2013-11-16 19:35:00,
2013-11-16 14:40:00,53.1,27.5,30.22,SW,234,0.0,0.0,37,0.00,,CLR,0.00,VWS V12.08,2013-11-16 19:40:00,
2013-11-16 14:45:00,52.9,28.0,30.22,SW,234,0.0,0.0,38,0.00,,CLR,0.00,VWS V12.08,2013-11-16 19:45:00,
2013-11-16 14:50:00,52.5,27.0,30.22,SW,234,0.0,0.0,37,0.00,,CLR,0.00,VWS V12.08,2013-11-16 19:50:00,
2013-11-16 14:55:00,52.3,28.7,30.22,SW,234,0.0,1.0,40,0.00,,CLR,0.00,VWS V12.08,2013-11-16 19:55:00,
2013-11-16 15:00:00,51.4,27.9,30.23,SW,234,0.0,0.0,40,0.00,,CLR,0.00,VWS V12.08,2013-11-16 20:00:00,
2013-11-16 15:05:00,50.4,27.6,30.23,SW,234,0.0,0.0,41,0.00,,CLR,0.00,VWS V12.08,2013-11-16 20:05:00,
2013-11-16 15:10:00,49.8,27.6,30.23,SW,234,0.0,0.0,42,0.00,,CLR,0.00,VWS V12.08,2013-11-16 20:10:00,
2013-11-16 15:15:00,49.1,28.1,30.23,SW,234,0.0,0.0,44,0.00,,CLR,0.00,VWS V12.08,2013-11-16 20:15:00,
2013-11-16 15:20:00,48.0,27.7,30.23,SW,234,0.0,1.0,45,0.00,,CLR,0.00,VWS V12.08,2013-11-16 20:20:00,
2013-11-16 15:25:00,46.7,27.6,30.23,WSW,257,2.0,3.0,47,0.00,,CLR,0.00,VWS V12.08,2013-11-16 20:25:00,
2013-11-16 15:30:00,46.1,28.0,30.24,WSW,256,0.0,0.0,49,0.00,,CLR,0.00,VWS V12.08,2013-11-16 20:30:00,
2013-11-16 15:35:00,45.5,28.9,30.24,WSW,257,0.0,0.0,52,0.00,,CLR,0.00,VWS V12.08,2013-11-16 20:35:00,
2013-11-16 15:40:00,45.1,29.0,30.24,WSW,257,1.0,1.0,53,0.00,,CLR,0.00,VWS V12.08,2013-11-16 20:40:00,
2013-11-16 15:45:00,44.3,29.6,30.23,WSW,257,0.0,0.0,56,0.00,,CLR,0.00,VWS V12.08,2013-11-16 20:45:00,
2013-11-16 15:50:00,43.5,30.1,30.23,WSW,257,0.0,2.0,59,0.00,,CLR,0.00,VWS V12.08,2013-11-16 20:50:00,
2013-11-16 15:55:00,42.7,30.2,30.23,WSW,257,0.0,0.0,61,0.00,,CLR,0.00,VWS V12.08,2013-11-16 20:55:00,
2013-11-16 16:00:00,42.1,30.0,30.24,WSW,257,0.0,0.0,62,0.00,,CLR,0.00,VWS V12.08,2013-11-16 21:00:00,
2013-11-16 16:05:00,41.6,30.3,30.24,WSW,257,0.0,1.0,64,0.00,,CLR,0.00,VWS V12.08,2013-11-16 21:05:00,
2013-11-16 16:10:00,41.0,30.5,30.24,WSW,257,0.0,0.0,66,0.00,,CLR,0.00,VWS V12.08,2013-11-16 21:10:00,
2013-11-16 16:15:00,40.4,30.7,30.24,WSW,257,0.0,0.0,68,0.00,,CLR,0.00,VWS V12.08,2013-11-16 21:15:00,
2013-11-16 16:20:00,39.8,30.5,30.24,WSW,257,0.0,0.0,69,0.00,,CLR,0.00,VWS V12.08,2013-11-16 21:20:00,
2013-11-16 16:25:00,39.3,30.4,30.24,WSW,257,0.0,0.0,70,0.00,,CLR,0.00,VWS V12.08,2013-11-16 21:25:00,
2013-11-16 16:30:00,38.7,30.1,30.24,WSW,257,0.0,0.0,71,0.00,,CLR,0.00,VWS V12.08,2013-11-16 21:30:00,
2013-11-16 16:35:00,38.3,29.7,30.24,WSW,256,0.0,0.0,71,0.00,,CLR,0.00,VWS V12.08,2013-11-16 21:35:00,
2013-11-16 16:40:00,38.0,29.8,30.24,WSW,257,0.0,0.0,72,0.00,,CLR,0.00,VWS V12.08,2013-11-16 21:40:00,
2013-11-16 16:45:00,37.7,29.5,30.25,WSW,257,0.0,0.0,72,0.00,,CLR,0.00,VWS V12.08,2013-11-16 21:45:00,
2013-11-16 16:50:00,37.4,29.5,30.25,WSW,256,0.0,0.0,73,0.00,,CLR,0.00,VWS V12.08,2013-11-16 21:50:00,
2013-11-16 16:55:00,37.0,29.2,30.25,WSW,257,0.0,0.0,73,0.00,,CLR,0.00,VWS V12.08,2013-11-16 21:55:00,
2013-11-16 17:00:00,36.6,29.1,30.25,WSW,257,0.0,0.0,74,0.00,,CLR,0.00,VWS V12.08,2013-11-16 22:00:00,
2013-11-16 17:05:00,36.1,28.6,30.25,WSW,257,0.0,0.0,74,0.00,,CLR,0.00,VWS V12.08,2013-11-16 22:05:00,
2013-11-16 17:10:00,35.8,28.7,30.25,WSW,257,0.0,0.0,75,0.00,,CLR,0.00,VWS V12.08,2013-11-16 22:10:00,
2013-11-16 17:15:00,35.4,28.9,30.26,WSW,257,0.0,0.0,77,0.00,,CLR,0.00,VWS V12.08,2013-11-16 22:15:00,
2013-11-16 17:20:00,35.3,29.1,30.26,WSW,257,0.0,0.0,78,0.00,,CLR,0.00,VWS V12.08,2013-11-16 22:20:00,
2013-11-16 17:25:00,35.0,29.2,30.26,WSW,257,0.0,0.0,79,0.00,,CLR,0.00,VWS V12.08,2013-11-16 22:25:00,
2013-11-16 17:30:00,34.7,28.9,30.27,WSW,257,0.0,0.0,79,0.00,,CLR,0.00,VWS V12.08,2013-11-16 22:30:00,
2013-11-16 17:35:00,34.3,28.8,30.27,WSW,257,0.0,0.0,80,0.00,,CLR,0.00,VWS V12.08,2013-11-16 22:35:00,
2013-11-16 17:40:00,34.0,28.5,30.27,WSW,257,0.0,0.0,80,0.00,,CLR,0.00,VWS V12.08,2013-11-16 22:40:00,
2013-11-16 17:45:00,33.5,28.0,30.27,WSW,257,0.0,0.0,80,0.00,,CLR,0.00,VWS V12.08,2013-11-16 22:45:00,
2013-11-16 17:50:00,33.3,28.1,30.27,WSW,257,0.0,0.0,81,0.00,,CLR,0.00,VWS V12.08,2013-11-16 22:50:00,
2013-11-16 17:55:00,33.0,27.8,30.27,WSW,257,0.0,0.0,81,0.00,,CLR,0.00,VWS V12.08,2013-11-16 22:55:00,
2013-11-16 18:00:00,32.7,28.1,30.28,WSW,257,0.0,0.0,83,0.00,,CLR,0.00,VWS V12.08,2013-11-16 23:00:00,
2013-11-16 18:05:00,32.5,28.2,30.28,WSW,257,0.0,0.0,84,0.00,,CLR,0.00,VWS V12.08,2013-11-16 23:05:00,
2013-11-16 18:10:00,32.2,27.9,30.28,WSW,257,0.0,0.0,84,0.00,,CLR,0.00,VWS V12.08,2013-11-16 23:10:00,
2013-11-16 18:15:00,31.9,27.9,30.28,WSW,256,0.0,0.0,85,0.00,,CLR,0.00,VWS V12.08,2013-11-16 23:15:00,
2013-11-16 18:21:00,31.6,27.6,30.28,WSW,257,0.0,0.0,85,0.00,,CLR,0.00,VWS V12.08,2013-11-16 23:21:00,
2013-11-16 18:26:00,31.5,27.5,30.28,WSW,257,0.0,0.0,85,0.00,,CLR,0.00,VWS V12.08,2013-11-16 23:26:00,
2013-11-16 18:31:00,31.2,27.5,30.28,WSW,257,0.0,0.0,86,0.00,,CLR,0.00,VWS V12.08,2013-11-16 23:31:00,
2013-11-16 18:36:00,31.0,27.3,30.28,WSW,257,0.0,0.0,86,0.00,,CLR,0.00,VWS V12.08,2013-11-16 23:36:00,
2013-11-16 18:41:00,30.7,27.3,30.28,WSW,257,0.0,0.0,87,0.00,,CLR,0.00,VWS V12.08,2013-11-16 23:41:00,
2013-11-16 18:46:00,30.6,27.2,30.28,WSW,257,0.0,0.0,87,0.00,,CLR,0.00,VWS V12.08,2013-11-16 23:46:00,
2013-11-16 18:51:00,30.3,27.2,30.28,WSW,257,0.0,0.0,88,0.00,,CLR,0.00,VWS V12.08,2013-11-16 23:51:00,
2013-11-16 18:56:00,30.2,27.1,30.28,WSW,257,0.0,0.0,88,0.00,,CLR,0.00,VWS V12.08,2013-11-16 23:56:00,
2013-11-16 19:01:00,29.9,27.1,30.28,WSW,257,0.0,0.0,89,0.00,,CLR,0.00,VWS V12.08,2013-11-17 00:01:00,
2013-11-16 19:06:00,29.7,26.9,30.28,WSW,257,0.0,0.0,89,0.00,,CLR,0.00,VWS V12.08,2013-11-17 00:06:00,
2013-11-16 19:11:00,29.6,26.8,30.28,WSW,257,0.0,0.0,89,0.00,,CLR,0.00,VWS V12.08,2013-11-17 00:11:00,
2013-11-16 19:16:00,29.4,26.8,30.29,WSW,257,0.0,0.0,90,0.00,,CLR,0.00,VWS V12.08,2013-11-17 00:16:00,
2013-11-16 19:21:00,29.3,26.7,30.29,WSW,257,0.0,0.0,90,0.00,,CLR,0.00,VWS V12.08,2013-11-17 00:21:00,
2013-11-16 19:26:00,29.0,26.4,30.29,WSW,257,0.0,0.0,90,0.00,,CLR,0.00,VWS V12.08,2013-11-17 00:26:00,
2013-11-16 19:31:00,28.8,26.5,30.29,WSW,257,0.0,0.0,91,0.00,,CLR,0.00,VWS V12.08,2013-11-17 00:31:00,
2013-11-16 19:36:00,28.7,26.4,30.29,WSW,257,0.0,0.0,91,0.00,,CLR,0.00,VWS V12.08,2013-11-17 00:36:00,
2013-11-16 19:41:00,28.5,26.2,30.29,WSW,257,0.0,0.0,91,0.00,,CLR,0.00,VWS V12.08,2013-11-17 00:41:00,
2013-11-16 19:46:00,28.4,26.1,30.29,WSW,257,0.0,0.0,91,0.00,,CLR,0.00,VWS V12.08,2013-11-17 00:46:00,
2013-11-16 19:51:00,28.2,26.2,30.29,WSW,257,0.0,0.0,92,0.00,,CLR,0.00,VWS V12.08,2013-11-17 00:51:00,
2013-11-16 19:56:00,28.1,26.1,30.29,WSW,257,0.0,0.0,92,0.00,,CLR,0.00,VWS V12.08,2013-11-17 00:56:00,
2013-11-16 20:01:00,27.9,25.9,30.29,WSW,257,0.0,0.0,92,0.00,,CLR,0.00,VWS V12.08,2013-11-17 01:01:00,
2013-11-16 20:06:00,27.8,25.8,30.29,WSW,257,0.0,0.0,92,0.00,,CLR,0.00,VWS V12.08,2013-11-17 01:06:00,
2013-11-16 20:11:00,27.6,25.8,30.29,WSW,257,0.0,0.0,93,0.00,,CLR,0.00,VWS V12.08,2013-11-17 01:11:00,
2013-11-16 20:16:00,27.6,25.6,30.28,WSW,257,0.0,0.0,92,0.00,,CLR,0.00,VWS V12.08,2013-11-17 01:16:00,
2013-11-16 20:21:00,27.5,25.5,30.28,WSW,257,0.0,0.0,92,0.00,,CLR,0.00,VWS V12.08,2013-11-17 01:21:00,
2013-11-16 20:26:00,27.3,25.3,30.28,WSW,257,0.0,0.0,92,0.00,,CLR,0.00,VWS V12.08,2013-11-17 01:26:00,
2013-11-16 20:31:00,27.2,25.2,30.28,WSW,257,0.0,0.0,92,0.00,,CLR,0.00,VWS V12.08,2013-11-17 01:31:00,
2013-11-16 20:36:00,27.0,25.2,30.28,WSW,257,0.0,0.0,93,0.00,,CLR,0.00,VWS V12.08,2013-11-17 01:36:00,
2013-11-16 20:41:00,27.0,25.2,30.28,WSW,257,0.0,0.0,93,0.00,,CLR,0.00,VWS V12.08,2013-11-17 01:41:00,
2013-11-16 20:46:00,26.9,25.1,30.28,WSW,257,0.0,0.0,93,0.00,,CLR,0.00,VWS V12.08,2013-11-17 01:46:00,
2013-11-16 20:51:00,26.9,25.1,30.28,WSW,257,0.0,0.0,93,0.00,,CLR,0.00,VWS V12.08,2013-11-17 01:51:00,
2013-11-16 20:56:00,26.8,25.0,30.28,WSW,257,0.0,0.0,93,0.00,,CLR,0.00,VWS V12.08,2013-11-17 01:56:00,
2013-11-16 21:01:00,26.6,24.9,30.29,WSW,257,0.0,0.0,93,0.00,,CLR,0.00,VWS V12.08,2013-11-17 02:01:00,
2013-11-16 21:06:00,26.6,24.9,30.29,WSW,257,0.0,0.0,93,0.00,,CLR,0.00,VWS V12.08,2013-11-17 02:06:00,
2013-11-16 21:11:00,26.5,24.8,30.29,WSW,257,0.0,0.0,93,0.00,,CLR,0.00,VWS V12.08,2013-11-17 02:11:00,
2013-11-16 21:16:00,26.5,25.0,30.28,WSW,257,0.0,0.0,94,0.00,,CLR,0.00,VWS V12.08,2013-11-17 02:16:00,
2013-11-16 21:21:00,26.3,24.8,30.28,WSW,257,0.0,0.0,94,0.00,,CLR,0.00,VWS V12.08,2013-11-17 02:21:00,
2013-11-16 21:26:00,26.3,24.8,30.28,WSW,257,0.0,0.0,94,0.00,,CLR,0.00,VWS V12.08,2013-11-17 02:26:00,
2013-11-16 21:31:00,26.2,24.7,30.29,WSW,257,0.0,0.0,94,0.00,,CLR,0.00,VWS V12.08,2013-11-17 02:31:00,
2013-11-16 21:36:00,26.0,24.5,30.29,WSW,257,0.0,0.0,94,0.00,,CLR,0.00,VWS V12.08,2013-11-17 02:36:00,
2013-11-16 21:41:00,26.0,24.5,30.29,WSW,257,0.0,0.0,94,0.00,,CLR,0.00,VWS V12.08,2013-11-17 02:41:00,
2013-11-16 21:46:00,25.9,24.4,30.29,WSW,257,0.0,0.0,94,0.00,,CLR,0.00,VWS V12.08,2013-11-17 02:46:00,
2013-11-16 21:51:00,25.9,24.7,30.29,WSW,257,0.0,0.0,95,0.00,,CLR,0.00,VWS V12.08,2013-11-17 02:51:00,
2013-11-16 21:56:00,25.9,24.7,30.29,WSW,257,0.0,0.0,95,0.00,,CLR,0.00,VWS V12.08,2013-11-17 02:56:00,
2013-11-16 22:01:00,25.7,24.5,30.29,WSW,257,0.0,0.0,95,0.00,,CLR,0.00,VWS V12.08,2013-11-17 03:01:00,
2013-11-16 22:06:00,25.7,24.5,30.29,WSW,257,0.0,0.0,95,0.00,,CLR,0.00,VWS V12.08,2013-11-17 03:06:00,
2013-11-16 22:11:00,25.7,24.5,30.29,WSW,257,0.0,0.0,95,0.00,,CLR,0.00,VWS V12.08,2013-11-17 03:11:00,
2013-11-16 22:16:00,25.7,24.5,30.28,WSW,257,0.0,0.0,95,0.00,,CLR,0.00,VWS V12.08,2013-11-17 03:16:00,
2013-11-16 22:21:00,25.7,24.5,30.28,WSW,257,0.0,0.0,95,0.00,,CLR,0.00,VWS V12.08,2013-11-17 03:21:00,
2013-11-16 22:26:00,25.7,24.7,30.28,WSW,257,0.0,0.0,96,0.00,,CLR,0.00,VWS V12.08,2013-11-17 03:26:00,
2013-11-16 22:31:00,25.6,24.6,30.29,WSW,257,0.0,0.0,96,0.00,,CLR,0.00,VWS V12.08,2013-11-17 03:31:00,
2013-11-16 22:36:00,25.6,24.6,30.29,WSW,257,0.0,0.0,96,0.00,,CLR,0.00,VWS V12.08,2013-11-17 03:36:00,
2013-11-16 22:41:00,25.6,24.6,30.29,NE,55,0.0,0.0,96,0.00,,CLR,0.00,VWS V12.08,2013-11-17 03:41:00,
2013-11-16 22:46:00,25.4,24.4,30.29,NE,54,0.0,0.0,96,0.00,,CLR,0.00,VWS V12.08,2013-11-17 03:46:00,
2013-11-16 22:51:00,25.4,24.4,30.29,NE,55,0.0,0.0,96,0.00,,CLR,0.00,VWS V12.08,2013-11-17 03:51:00,
2013-11-16 22:56:00,25.4,24.4,30.29,NE,54,0.0,0.0,96,0.00,,CLR,0.00,VWS V12.08,2013-11-17 03:56:00,
2013-11-16 23:01:00,25.3,24.3,30.30,NE,54,0.0,0.0,96,0.00,,CLR,0.00,VWS V12.08,2013-11-17 04:01:00,
2013-11-16 23:07:00,25.3,24.3,30.30,NE,55,1.0,1.0,96,0.00,,CLR,0.00,VWS V12.08,2013-11-17 04:07:00,
2013-11-16 23:12:00,25.3,24.3,30.30,NE,54,0.0,0.0,96,0.00,,CLR,0.00,VWS V12.08,2013-11-17 04:12:00,
2013-11-16 23:17:00,25.1,24.1,30.30,NE,54,0.0,2.0,96,0.00,,CLR,0.00,VWS V12.08,2013-11-17 04:17:00,
2013-11-16 23:22:00,25.1,24.1,30.30,NE,54,0.0,0.0,96,0.00,,CLR,0.00,VWS V12.08,2013-11-17 04:22:00,
2013-11-16 23:27:00,25.0,24.0,30.30,NE,54,0.0,0.0,96,0.00,,CLR,0.00,VWS V12.08,2013-11-17 04:27:00,
2013-11-16 23:32:00,25.0,24.0,30.29,NE,54,0.0,0.0,96,0.00,,CLR,0.00,VWS V12.08,2013-11-17 04:32:00,
2013-11-16 23:37:00,25.0,24.3,30.29,NE,55,0.0,0.0,97,0.00,,CLR,0.00,VWS V12.08,2013-11-17 04:37:00,
2013-11-16 23:42:00,25.0,24.3,30.29,NE,54,0.0,0.0,97,0.00,,CLR,0.00,VWS V12.08,2013-11-17 04:42:00,
2013-11-16 23:47:00,24.8,24.1,30.29,NE,54,0.0,0.0,97,0.00,,CLR,0.00,VWS V12.08,2013-11-17 04:47:00,
2013-11-16 23:52:00,24.8,24.1,30.29,NE,54,0.0,0.0,97,0.00,,CLR,0.00,VWS V12.08,2013-11-17 04:52:00,
2013-11-16 23:57:00,24.8,24.1,30.29,NE,54,0.0,0.0,97,0.00,,CLR,0.00,VWS V12.08,2013-11-17 04:57:00,